sensor_id;sensor_type;location;lat;lon;timestamp;P1;durP1;ratioP1;P2;durP2;ratioP2
50531;SDS011;36483;37.396;-122.212;2022-07-10T00:00:42;3.25;;;1.02;;
50531;SDS011;36483;37.396;-122.212;2022-07-10T00:03:08;1.58;;;0.90;;
50531;SDS011;36483;37.396;-122.212;2022-07-10T00:05:34;1.90;;;1.00;;
50531;SDS011;36483;37.396;-122.212;2022-07-10T00:08:00;1.70;;;1.08;;
50531;SDS011;36483;37.396;-122.212;2022-07-10T00:10:27;1.67;;;0.90;;
50531;SDS011;36483;37.396;-122.212;2022-07-10T00:12:54;2.05;;;1.00;;
50531;SDS011;36483;37.396;-122.212;2022-07-10T00:15:20;3.42;;;0.90;;
50531;SDS011;36483;37.396;-122.212;2022-07-10T00:17:46;3.40;;;1.00;;
50531;SDS011;36483;37.396;-122.212;2022-07-10T00:20:13;2.15;;;0.93;;
50531;SDS011;36483;37.396;-122.212;2022-07-10T00:22:40;3.58;;;0.90;;
50531;SDS011;36483;37.396;-122.212;2022-07-10T00:25:09;1.75;;;0.75;;
50531;SDS011;36483;37.396;-122.212;2022-07-10T00:27:36;1.73;;;1.00;;
50531;SDS011;36483;37.396;-122.212;2022-07-10T00:30:02;2.40;;;0.88;;
50531;SDS011;36483;37.396;-122.212;2022-07-10T00:32:28;2.30;;;0.82;;
50531;SDS011;36483;37.396;-122.212;2022-07-10T00:34:55;1.50;;;0.85;;
50531;SDS011;36483;37.396;-122.212;2022-07-10T00:37:21;2.15;;;0.80;;
50531;SDS011;36483;37.396;-122.212;2022-07-10T00:39:47;1.75;;;0.90;;
50531;SDS011;36483;37.396;-122.212;2022-07-10T00:42:14;1.65;;;0.90;;
50531;SDS011;36483;37.396;-122.212;2022-07-10T00:44:41;2.25;;;0.80;;
50531;SDS011;36483;37.396;-122.212;2022-07-10T00:47:08;1.67;;;0.90;;
50531;SDS011;36483;37.396;-122.212;2022-07-10T00:49:35;3.60;;;1.10;;
50531;SDS011;36483;37.396;-122.212;2022-07-10T00:52:05;2.47;;;1.00;;
50531;SDS011;36483;37.396;-122.212;2022-07-10T00:54:33;2.17;;;1.10;;
50531;SDS011;36483;37.396;-122.212;2022-07-10T00:57:01;4.10;;;1.20;;
50531;SDS011;36483;37.396;-122.212;2022-07-10T00:59:30;4.40;;;1.10;;
50531;SDS011;36483;37.396;-122.212;2022-07-10T01:01:56;3.40;;;0.93;;
50531;SDS011;36483;37.396;-122.212;2022-07-10T01:04:23;2.35;;;0.93;;
50531;SDS011;36483;37.396;-122.212;2022-07-10T01:06:49;2.72;;;1.10;;
50531;SDS011;36483;37.396;-122.212;2022-07-10T01:09:16;4.57;;;1.20;;
50531;SDS011;36483;37.396;-122.212;2022-07-10T01:11:42;6.15;;;1.00;;
50531;SDS011;36483;37.396;-122.212;2022-07-10T01:14:08;3.15;;;0.90;;
50531;SDS011;36483;37.396;-122.212;2022-07-10T01:16:34;1.83;;;0.88;;
50531;SDS011;36483;37.396;-122.212;2022-07-10T01:19:00;1.73;;;1.00;;
50531;SDS011;36483;37.396;-122.212;2022-07-10T01:21:30;2.95;;;1.10;;
50531;SDS011;36483;37.396;-122.212;2022-07-10T01:24:03;3.00;;;1.10;;
50531;SDS011;36483;37.396;-122.212;2022-07-10T01:26:31;3.70;;;1.00;;
50531;SDS011;36483;37.396;-122.212;2022-07-10T01:28:57;2.75;;;1.27;;
50531;SDS011;36483;37.396;-122.212;2022-07-10T01:31:25;2.55;;;0.90;;
50531;SDS011;36483;37.396;-122.212;2022-07-10T01:33:52;2.67;;;0.80;;
50531;SDS011;36483;37.396;-122.212;2022-07-10T01:36:21;2.10;;;0.82;;
50531;SDS011;36483;37.396;-122.212;2022-07-10T01:38:49;2.05;;;0.93;;
50531;SDS011;36483;37.396;-122.212;2022-07-10T01:41:17;3.65;;;1.10;;
50531;SDS011;36483;37.396;-122.212;2022-07-10T01:43:43;3.75;;;1.15;;
50531;SDS011;36483;37.396;-122.212;2022-07-10T01:46:10;4.88;;;1.10;;
50531;SDS011;36483;37.396;-122.212;2022-07-10T01:48:37;2.63;;;1.00;;
50531;SDS011;36483;37.396;-122.212;2022-07-10T01:51:04;2.50;;;0.98;;
50531;SDS011;36483;37.396;-122.212;2022-07-10T01:53:31;3.20;;;1.25;;
50531;SDS011;36483;37.396;-122.212;2022-07-10T01:55:57;2.95;;;1.20;;
50531;SDS011;36483;37.396;-122.212;2022-07-10T01:58:24;3.38;;;1.10;;
50531;SDS011;36483;37.396;-122.212;2022-07-10T02:00:50;3.42;;;1.20;;
50531;SDS011;36483;37.396;-122.212;2022-07-10T02:03:16;4.72;;;1.15;;
50531;SDS011;36483;37.396;-122.212;2022-07-10T02:06:01;2.08;;;1.00;;
50531;SDS011;36483;37.396;-122.212;2022-07-10T02:08:27;3.60;;;1.40;;
50531;SDS011;36483;37.396;-122.212;2022-07-10T02:10:53;3.88;;;1.00;;
50531;SDS011;36483;37.396;-122.212;2022-07-10T02:13:19;3.00;;;1.00;;
50531;SDS011;36483;37.396;-122.212;2022-07-10T02:15:46;4.18;;;1.00;;
50531;SDS011;36483;37.396;-122.212;2022-07-10T02:18:13;2.25;;;1.00;;
50531;SDS011;36483;37.396;-122.212;2022-07-10T02:20:39;2.53;;;1.20;;
50531;SDS011;36483;37.396;-122.212;2022-07-10T02:23:05;3.53;;;1.00;;
50531;SDS011;36483;37.396;-122.212;2022-07-10T02:25:32;3.50;;;0.95;;
50531;SDS011;36483;37.396;-122.212;2022-07-10T02:27:59;2.35;;;0.98;;
50531;SDS011;36483;37.396;-122.212;2022-07-10T02:30:25;4.15;;;1.20;;
50531;SDS011;36483;37.396;-122.212;2022-07-10T02:32:51;4.78;;;1.40;;
50531;SDS011;36483;37.396;-122.212;2022-07-10T02:35:17;2.38;;;1.00;;
50531;SDS011;36483;37.396;-122.212;2022-07-10T02:37:44;3.13;;;1.08;;
50531;SDS011;36483;37.396;-122.212;2022-07-10T02:40:10;3.00;;;1.00;;
50531;SDS011;36483;37.396;-122.212;2022-07-10T02:42:36;4.00;;;1.30;;
50531;SDS011;36483;37.396;-122.212;2022-07-10T02:45:03;5.07;;;1.00;;
50531;SDS011;36483;37.396;-122.212;2022-07-10T02:47:29;4.35;;;1.10;;
50531;SDS011;36483;37.396;-122.212;2022-07-10T02:49:56;3.00;;;1.08;;
50531;SDS011;36483;37.396;-122.212;2022-07-10T02:52:22;3.33;;;0.98;;
50531;SDS011;36483;37.396;-122.212;2022-07-10T02:54:48;3.58;;;1.27;;
50531;SDS011;36483;37.396;-122.212;2022-07-10T02:57:16;2.67;;;1.00;;
50531;SDS011;36483;37.396;-122.212;2022-07-10T02:59:42;3.58;;;1.00;;
50531;SDS011;36483;37.396;-122.212;2022-07-10T03:02:08;3.67;;;1.20;;
50531;SDS011;36483;37.396;-122.212;2022-07-10T03:04:34;5.32;;;1.17;;
50531;SDS011;36483;37.396;-122.212;2022-07-10T03:07:01;6.28;;;1.38;;
50531;SDS011;36483;37.396;-122.212;2022-07-10T03:09:27;4.13;;;1.13;;
50531;SDS011;36483;37.396;-122.212;2022-07-10T03:11:53;4.18;;;1.00;;
50531;SDS011;36483;37.396;-122.212;2022-07-10T03:14:19;3.15;;;1.20;;
50531;SDS011;36483;37.396;-122.212;2022-07-10T03:16:45;3.88;;;1.20;;
50531;SDS011;36483;37.396;-122.212;2022-07-10T03:19:12;3.53;;;1.05;;
50531;SDS011;36483;37.396;-122.212;2022-07-10T03:21:38;4.47;;;1.00;;
50531;SDS011;36483;37.396;-122.212;2022-07-10T03:24:05;3.00;;;1.15;;
50531;SDS011;36483;37.396;-122.212;2022-07-10T03:26:31;4.53;;;1.00;;
50531;SDS011;36483;37.396;-122.212;2022-07-10T03:28:57;2.28;;;0.93;;
50531;SDS011;36483;37.396;-122.212;2022-07-10T03:31:23;3.20;;;1.05;;
50531;SDS011;36483;37.396;-122.212;2022-07-10T03:33:49;2.97;;;0.90;;
50531;SDS011;36483;37.396;-122.212;2022-07-10T03:36:18;3.70;;;1.10;;
50531;SDS011;36483;37.396;-122.212;2022-07-10T03:38:44;3.85;;;1.10;;
50531;SDS011;36483;37.396;-122.212;2022-07-10T03:41:12;5.05;;;1.23;;
50531;SDS011;36483;37.396;-122.212;2022-07-10T03:43:39;3.15;;;0.93;;
50531;SDS011;36483;37.396;-122.212;2022-07-10T03:46:05;3.40;;;1.10;;
50531;SDS011;36483;37.396;-122.212;2022-07-10T03:48:31;4.82;;;1.20;;
50531;SDS011;36483;37.396;-122.212;2022-07-10T03:50:57;3.38;;;1.05;;
50531;SDS011;36483;37.396;-122.212;2022-07-10T03:53:24;3.95;;;1.00;;
50531;SDS011;36483;37.396;-122.212;2022-07-10T03:55:50;4.05;;;1.13;;
50531;SDS011;36483;37.396;-122.212;2022-07-10T03:58:16;4.72;;;1.15;;
50531;SDS011;36483;37.396;-122.212;2022-07-10T04:00:42;2.33;;;1.10;;
50531;SDS011;36483;37.396;-122.212;2022-07-10T04:03:08;1.98;;;0.85;;
50531;SDS011;36483;37.396;-122.212;2022-07-10T04:05:34;5.45;;;1.35;;
50531;SDS011;36483;37.396;-122.212;2022-07-10T04:08:01;3.25;;;1.25;;
50531;SDS011;36483;37.396;-122.212;2022-07-10T04:10:30;4.60;;;1.30;;
50531;SDS011;36483;37.396;-122.212;2022-07-10T04:12:56;3.53;;;1.10;;
50531;SDS011;36483;37.396;-122.212;2022-07-10T04:15:23;4.18;;;1.27;;
50531;SDS011;36483;37.396;-122.212;2022-07-10T04:17:50;3.95;;;1.20;;
50531;SDS011;36483;37.396;-122.212;2022-07-10T04:20:17;2.92;;;1.23;;
50531;SDS011;36483;37.396;-122.212;2022-07-10T04:22:43;4.03;;;1.33;;
50531;SDS011;36483;37.396;-122.212;2022-07-10T04:25:10;3.15;;;1.20;;
50531;SDS011;36483;37.396;-122.212;2022-07-10T04:27:36;7.82;;;1.40;;
50531;SDS011;36483;37.396;-122.212;2022-07-10T04:30:02;3.95;;;1.25;;
50531;SDS011;36483;37.396;-122.212;2022-07-10T04:32:29;2.67;;;0.95;;
50531;SDS011;36483;37.396;-122.212;2022-07-10T04:34:55;4.10;;;1.00;;
50531;SDS011;36483;37.396;-122.212;2022-07-10T04:37:21;3.63;;;1.15;;
50531;SDS011;36483;37.396;-122.212;2022-07-10T04:39:48;3.38;;;1.05;;
50531;SDS011;36483;37.396;-122.212;2022-07-10T04:42:14;3.40;;;1.00;;
50531;SDS011;36483;37.396;-122.212;2022-07-10T04:44:40;3.55;;;1.20;;
50531;SDS011;36483;37.396;-122.212;2022-07-10T04:47:07;2.70;;;0.95;;
50531;SDS011;36483;37.396;-122.212;2022-07-10T04:49:33;2.72;;;1.23;;
50531;SDS011;36483;37.396;-122.212;2022-07-10T04:52:00;3.05;;;0.98;;
50531;SDS011;36483;37.396;-122.212;2022-07-10T04:54:26;5.20;;;1.30;;
50531;SDS011;36483;37.396;-122.212;2022-07-10T04:56:52;2.92;;;1.10;;
50531;SDS011;36483;37.396;-122.212;2022-07-10T04:59:18;3.83;;;1.30;;
50531;SDS011;36483;37.396;-122.212;2022-07-10T05:01:44;4.78;;;1.27;;
50531;SDS011;36483;37.396;-122.212;2022-07-10T05:04:10;6.25;;;1.17;;
50531;SDS011;36483;37.396;-122.212;2022-07-10T05:06:36;3.70;;;1.40;;
50531;SDS011;36483;37.396;-122.212;2022-07-10T05:09:03;3.53;;;1.10;;
50531;SDS011;36483;37.396;-122.212;2022-07-10T05:11:29;5.88;;;1.30;;
50531;SDS011;36483;37.396;-122.212;2022-07-10T05:13:56;4.70;;;1.38;;
50531;SDS011;36483;37.396;-122.212;2022-07-10T05:16:23;3.33;;;1.40;;
50531;SDS011;36483;37.396;-122.212;2022-07-10T05:18:49;5.25;;;1.50;;
50531;SDS011;36483;37.396;-122.212;2022-07-10T05:21:15;5.32;;;1.40;;
50531;SDS011;36483;37.396;-122.212;2022-07-10T05:23:42;3.38;;;1.40;;
50531;SDS011;36483;37.396;-122.212;2022-07-10T05:26:08;3.40;;;1.20;;
50531;SDS011;36483;37.396;-122.212;2022-07-10T05:28:34;3.08;;;1.30;;
50531;SDS011;36483;37.396;-122.212;2022-07-10T05:31:01;5.65;;;1.48;;
50531;SDS011;36483;37.396;-122.212;2022-07-10T05:33:27;4.72;;;1.30;;
50531;SDS011;36483;37.396;-122.212;2022-07-10T05:35:54;3.42;;;1.33;;
50531;SDS011;36483;37.396;-122.212;2022-07-10T05:38:20;3.92;;;1.30;;
50531;SDS011;36483;37.396;-122.212;2022-07-10T05:40:46;4.63;;;1.63;;
50531;SDS011;36483;37.396;-122.212;2022-07-10T05:43:14;4.93;;;1.40;;
50531;SDS011;36483;37.396;-122.212;2022-07-10T05:45:40;4.18;;;1.35;;
50531;SDS011;36483;37.396;-122.212;2022-07-10T05:48:06;6.75;;;1.30;;
50531;SDS011;36483;37.396;-122.212;2022-07-10T05:50:32;4.32;;;1.20;;
50531;SDS011;36483;37.396;-122.212;2022-07-10T05:52:58;6.65;;;1.50;;
50531;SDS011;36483;37.396;-122.212;2022-07-10T05:55:24;4.05;;;1.50;;
50531;SDS011;36483;37.396;-122.212;2022-07-10T05:57:50;4.28;;;1.33;;
50531;SDS011;36483;37.396;-122.212;2022-07-10T06:00:17;5.18;;;1.50;;
50531;SDS011;36483;37.396;-122.212;2022-07-10T06:02:43;4.18;;;1.58;;
50531;SDS011;36483;37.396;-122.212;2022-07-10T06:05:09;2.75;;;1.15;;
50531;SDS011;36483;37.396;-122.212;2022-07-10T06:07:35;3.92;;;1.42;;
50531;SDS011;36483;37.396;-122.212;2022-07-10T06:10:04;4.13;;;1.48;;
50531;SDS011;36483;37.396;-122.212;2022-07-10T06:12:31;6.18;;;1.50;;
50531;SDS011;36483;37.396;-122.212;2022-07-10T06:14:58;3.60;;;1.20;;
50531;SDS011;36483;37.396;-122.212;2022-07-10T06:17:24;4.35;;;1.42;;
50531;SDS011;36483;37.396;-122.212;2022-07-10T06:19:50;5.57;;;1.52;;
50531;SDS011;36483;37.396;-122.212;2022-07-10T06:22:16;3.30;;;1.23;;
50531;SDS011;36483;37.396;-122.212;2022-07-10T06:24:58;3.97;;;1.50;;
50531;SDS011;36483;37.396;-122.212;2022-07-10T06:27:28;5.37;;;1.40;;
50531;SDS011;36483;37.396;-122.212;2022-07-10T06:29:55;4.43;;;1.40;;
50531;SDS011;36483;37.396;-122.212;2022-07-10T06:32:21;5.70;;;1.50;;
50531;SDS011;36483;37.396;-122.212;2022-07-10T06:34:47;3.67;;;1.60;;
50531;SDS011;36483;37.396;-122.212;2022-07-10T06:37:13;4.20;;;1.52;;
50531;SDS011;36483;37.396;-122.212;2022-07-10T06:39:40;5.25;;;1.65;;
50531;SDS011;36483;37.396;-122.212;2022-07-10T06:42:06;5.28;;;1.60;;
50531;SDS011;36483;37.396;-122.212;2022-07-10T06:44:32;5.20;;;1.90;;
50531;SDS011;36483;37.396;-122.212;2022-07-10T06:46:58;4.22;;;1.65;;
50531;SDS011;36483;37.396;-122.212;2022-07-10T06:49:43;4.18;;;1.70;;
50531;SDS011;36483;37.396;-122.212;2022-07-10T06:52:13;5.28;;;1.98;;
50531;SDS011;36483;37.396;-122.212;2022-07-10T06:54:40;5.10;;;1.75;;
50531;SDS011;36483;37.396;-122.212;2022-07-10T06:57:06;5.40;;;2.03;;
50531;SDS011;36483;37.396;-122.212;2022-07-10T06:59:33;6.10;;;2.05;;
50531;SDS011;36483;37.396;-122.212;2022-07-10T07:01:59;7.50;;;1.92;;
50531;SDS011;36483;37.396;-122.212;2022-07-10T07:04:25;5.50;;;2.10;;
50531;SDS011;36483;37.396;-122.212;2022-07-10T07:06:51;7.65;;;2.00;;
50531;SDS011;36483;37.396;-122.212;2022-07-10T07:09:17;7.43;;;2.67;;
50531;SDS011;36483;37.396;-122.212;2022-07-10T07:11:43;5.70;;;2.15;;
50531;SDS011;36483;37.396;-122.212;2022-07-10T07:14:11;9.32;;;2.22;;
50531;SDS011;36483;37.396;-122.212;2022-07-10T07:16:37;8.07;;;2.03;;
50531;SDS011;36483;37.396;-122.212;2022-07-10T07:19:07;8.85;;;2.03;;
50531;SDS011;36483;37.396;-122.212;2022-07-10T07:21:33;7.93;;;1.92;;
50531;SDS011;36483;37.396;-122.212;2022-07-10T07:24:18;9.75;;;2.45;;
50531;SDS011;36483;37.396;-122.212;2022-07-10T07:26:44;6.40;;;2.65;;
50531;SDS011;36483;37.396;-122.212;2022-07-10T07:29:16;6.28;;;2.38;;
50531;SDS011;36483;37.396;-122.212;2022-07-10T07:31:42;5.32;;;2.17;;
50531;SDS011;36483;37.396;-122.212;2022-07-10T07:34:09;7.32;;;1.70;;
50531;SDS011;36483;37.396;-122.212;2022-07-10T07:36:35;8.23;;;2.55;;
50531;SDS011;36483;37.396;-122.212;2022-07-10T07:39:02;9.85;;;2.22;;
50531;SDS011;36483;37.396;-122.212;2022-07-10T07:41:28;7.95;;;2.30;;
50531;SDS011;36483;37.396;-122.212;2022-07-10T07:43:55;6.88;;;2.45;;
50531;SDS011;36483;37.396;-122.212;2022-07-10T07:46:21;5.57;;;2.30;;
50531;SDS011;36483;37.396;-122.212;2022-07-10T07:48:47;4.88;;;2.08;;
50531;SDS011;36483;37.396;-122.212;2022-07-10T07:51:13;6.05;;;2.40;;
50531;SDS011;36483;37.396;-122.212;2022-07-10T07:53:39;7.10;;;2.50;;
50531;SDS011;36483;37.396;-122.212;2022-07-10T07:56:05;6.82;;;1.85;;
50531;SDS011;36483;37.396;-122.212;2022-07-10T07:58:31;6.95;;;2.38;;
50531;SDS011;36483;37.396;-122.212;2022-07-10T08:00:58;5.82;;;2.00;;
50531;SDS011;36483;37.396;-122.212;2022-07-10T08:03:24;8.80;;;2.78;;
50531;SDS011;36483;37.396;-122.212;2022-07-10T08:05:50;9.65;;;2.70;;
50531;SDS011;36483;37.396;-122.212;2022-07-10T08:08:16;6.50;;;2.38;;
50531;SDS011;36483;37.396;-122.212;2022-07-10T08:10:42;5.72;;;2.25;;
50531;SDS011;36483;37.396;-122.212;2022-07-10T08:13:08;8.32;;;3.10;;
50531;SDS011;36483;37.396;-122.212;2022-07-10T08:15:35;7.57;;;2.58;;
50531;SDS011;36483;37.396;-122.212;2022-07-10T08:18:01;7.15;;;2.50;;
50531;SDS011;36483;37.396;-122.212;2022-07-10T08:20:29;10.98;;;2.70;;
50531;SDS011;36483;37.396;-122.212;2022-07-10T08:22:56;10.23;;;2.85;;
50531;SDS011;36483;37.396;-122.212;2022-07-10T08:25:22;5.90;;;2.53;;
50531;SDS011;36483;37.396;-122.212;2022-07-10T08:27:49;8.10;;;2.40;;
50531;SDS011;36483;37.396;-122.212;2022-07-10T08:30:15;6.20;;;2.47;;
50531;SDS011;36483;37.396;-122.212;2022-07-10T08:32:41;9.63;;;2.92;;
50531;SDS011;36483;37.396;-122.212;2022-07-10T08:35:08;7.18;;;2.13;;
50531;SDS011;36483;37.396;-122.212;2022-07-10T08:37:38;4.95;;;2.33;;
50531;SDS011;36483;37.396;-122.212;2022-07-10T08:40:05;6.55;;;2.55;;
50531;SDS011;36483;37.396;-122.212;2022-07-10T08:42:35;5.93;;;2.33;;
50531;SDS011;36483;37.396;-122.212;2022-07-10T08:45:02;7.55;;;2.60;;
50531;SDS011;36483;37.396;-122.212;2022-07-10T08:47:28;5.68;;;2.70;;
50531;SDS011;36483;37.396;-122.212;2022-07-10T08:49:56;5.53;;;2.30;;
50531;SDS011;36483;37.396;-122.212;2022-07-10T08:52:25;8.68;;;3.03;;
50531;SDS011;36483;37.396;-122.212;2022-07-10T08:54:52;6.30;;;2.60;;
50531;SDS011;36483;37.396;-122.212;2022-07-10T08:57:20;7.10;;;2.50;;
50531;SDS011;36483;37.396;-122.212;2022-07-10T08:59:46;8.40;;;2.33;;
50531;SDS011;36483;37.396;-122.212;2022-07-10T09:02:12;6.50;;;2.50;;
50531;SDS011;36483;37.396;-122.212;2022-07-10T09:04:38;9.27;;;2.67;;
50531;SDS011;36483;37.396;-122.212;2022-07-10T09:07:04;8.65;;;2.60;;
50531;SDS011;36483;37.396;-122.212;2022-07-10T09:09:30;9.50;;;2.55;;
50531;SDS011;36483;37.396;-122.212;2022-07-10T09:11:57;6.43;;;2.28;;
50531;SDS011;36483;37.396;-122.212;2022-07-10T09:14:24;8.18;;;2.45;;
50531;SDS011;36483;37.396;-122.212;2022-07-10T09:16:53;9.02;;;2.80;;
50531;SDS011;36483;37.396;-122.212;2022-07-10T09:19:20;5.50;;;2.30;;
50531;SDS011;36483;37.396;-122.212;2022-07-10T09:21:52;6.15;;;2.42;;
50531;SDS011;36483;37.396;-122.212;2022-07-10T09:24:38;6.97;;;2.25;;
50531;SDS011;36483;37.396;-122.212;2022-07-10T09:27:05;5.50;;;2.30;;
50531;SDS011;36483;37.396;-122.212;2022-07-10T09:29:33;6.22;;;2.08;;
50531;SDS011;36483;37.396;-122.212;2022-07-10T09:32:22;7.10;;;2.60;;
50531;SDS011;36483;37.396;-122.212;2022-07-10T09:34:49;4.93;;;2.15;;
50531;SDS011;36483;37.396;-122.212;2022-07-10T09:37:38;4.50;;;2.28;;
50531;SDS011;36483;37.396;-122.212;2022-07-10T09:40:05;7.60;;;2.47;;
50531;SDS011;36483;37.396;-122.212;2022-07-10T09:52:53;6.07;;;2.42;;
50531;SDS011;36483;37.396;-122.212;2022-07-10T09:55:24;7.63;;;2.50;;
50531;SDS011;36483;37.396;-122.212;2022-07-10T09:58:01;5.80;;;2.30;;
50531;SDS011;36483;37.396;-122.212;2022-07-10T10:00:31;9.25;;;2.30;;
50531;SDS011;36483;37.396;-122.212;2022-07-10T10:02:59;6.15;;;2.40;;
50531;SDS011;36483;37.396;-122.212;2022-07-10T10:05:44;6.45;;;2.97;;
50531;SDS011;36483;37.396;-122.212;2022-07-10T10:11:00;5.47;;;2.10;;
50531;SDS011;36483;37.396;-122.212;2022-07-10T10:13:27;4.95;;;2.60;;
50531;SDS011;36483;37.396;-122.212;2022-07-10T10:15:55;9.65;;;2.63;;
50531;SDS011;36483;37.396;-122.212;2022-07-10T10:18:22;8.07;;;2.83;;
50531;SDS011;36483;37.396;-122.212;2022-07-10T10:20:50;5.65;;;2.50;;
50531;SDS011;36483;37.396;-122.212;2022-07-10T10:23:18;7.47;;;2.60;;
50531;SDS011;36483;37.396;-122.212;2022-07-10T10:25:50;5.93;;;2.47;;
50531;SDS011;36483;37.396;-122.212;2022-07-10T10:28:23;7.07;;;2.30;;
50531;SDS011;36483;37.396;-122.212;2022-07-10T10:30:55;7.63;;;2.03;;
50531;SDS011;36483;37.396;-122.212;2022-07-10T10:36:02;9.60;;;2.75;;
50531;SDS011;36483;37.396;-122.212;2022-07-10T10:46:35;5.30;;;2.35;;
50531;SDS011;36483;37.396;-122.212;2022-07-10T10:49:06;7.93;;;2.97;;
50531;SDS011;36483;37.396;-122.212;2022-07-10T10:54:58;7.45;;;2.88;;
50531;SDS011;36483;37.396;-122.212;2022-07-10T11:02:28;4.85;;;2.40;;
50531;SDS011;36483;37.396;-122.212;2022-07-10T11:13:02;7.15;;;2.60;;
50531;SDS011;36483;37.396;-122.212;2022-07-10T11:15:52;7.97;;;3.20;;
50531;SDS011;36483;37.396;-122.212;2022-07-10T11:18:19;7.32;;;2.80;;
50531;SDS011;36483;37.396;-122.212;2022-07-10T11:20:51;5.60;;;2.60;;
50531;SDS011;36483;37.396;-122.212;2022-07-10T11:23:43;8.10;;;3.00;;
50531;SDS011;36483;37.396;-122.212;2022-07-10T11:26:19;6.72;;;2.88;;
50531;SDS011;36483;37.396;-122.212;2022-07-10T11:28:54;6.50;;;3.03;;
50531;SDS011;36483;37.396;-122.212;2022-07-10T11:31:24;8.00;;;2.90;;
50531;SDS011;36483;37.396;-122.212;2022-07-10T11:33:53;8.73;;;2.60;;
50531;SDS011;36483;37.396;-122.212;2022-07-10T11:36:24;6.03;;;2.88;;
50531;SDS011;36483;37.396;-122.212;2022-07-10T11:39:00;7.78;;;2.75;;
50531;SDS011;36483;37.396;-122.212;2022-07-10T11:41:28;5.70;;;2.50;;
50531;SDS011;36483;37.396;-122.212;2022-07-10T11:43:55;8.82;;;2.97;;
50531;SDS011;36483;37.396;-122.212;2022-07-10T11:46:26;11.57;;;3.47;;
50531;SDS011;36483;37.396;-122.212;2022-07-10T11:48:53;6.80;;;3.05;;
50531;SDS011;36483;37.396;-122.212;2022-07-10T11:51:32;6.80;;;2.95;;
50531;SDS011;36483;37.396;-122.212;2022-07-10T11:56:28;8.27;;;3.53;;
50531;SDS011;36483;37.396;-122.212;2022-07-10T11:59:02;8.05;;;3.03;;
50531;SDS011;36483;37.396;-122.212;2022-07-10T12:01:30;7.13;;;3.40;;
50531;SDS011;36483;37.396;-122.212;2022-07-10T12:04:02;8.63;;;3.05;;
50531;SDS011;36483;37.396;-122.212;2022-07-10T12:06:30;6.75;;;2.72;;
50531;SDS011;36483;37.396;-122.212;2022-07-10T12:11:39;9.32;;;3.40;;
50531;SDS011;36483;37.396;-122.212;2022-07-10T12:14:17;8.10;;;3.40;;
50531;SDS011;36483;37.396;-122.212;2022-07-10T12:16:45;7.88;;;3.55;;
50531;SDS011;36483;37.396;-122.212;2022-07-10T12:19:13;9.75;;;3.40;;
50531;SDS011;36483;37.396;-122.212;2022-07-10T12:21:44;8.25;;;3.25;;
50531;SDS011;36483;37.396;-122.212;2022-07-10T12:24:13;7.07;;;3.35;;
50531;SDS011;36483;37.396;-122.212;2022-07-10T12:26:42;9.65;;;3.65;;
50531;SDS011;36483;37.396;-122.212;2022-07-10T12:29:19;8.50;;;3.10;;
50531;SDS011;36483;37.396;-122.212;2022-07-10T12:31:54;7.28;;;3.65;;
50531;SDS011;36483;37.396;-122.212;2022-07-10T12:34:39;9.38;;;3.42;;
50531;SDS011;36483;37.396;-122.212;2022-07-10T12:37:11;7.82;;;3.47;;
50531;SDS011;36483;37.396;-122.212;2022-07-10T12:39:45;6.88;;;3.33;;
50531;SDS011;36483;37.396;-122.212;2022-07-10T12:42:13;9.45;;;2.95;;
50531;SDS011;36483;37.396;-122.212;2022-07-10T12:44:49;10.68;;;3.60;;
50531;SDS011;36483;37.396;-122.212;2022-07-10T12:47:18;7.95;;;3.05;;
50531;SDS011;36483;37.396;-122.212;2022-07-10T12:50:05;8.80;;;3.53;;
50531;SDS011;36483;37.396;-122.212;2022-07-10T12:52:34;7.15;;;3.53;;
50531;SDS011;36483;37.396;-122.212;2022-07-10T12:55:16;6.63;;;3.53;;
50531;SDS011;36483;37.396;-122.212;2022-07-10T12:57:54;8.68;;;3.67;;
50531;SDS011;36483;37.396;-122.212;2022-07-10T13:00:22;9.98;;;3.58;;
50531;SDS011;36483;37.396;-122.212;2022-07-10T13:02:56;8.65;;;3.67;;
50531;SDS011;36483;37.396;-122.212;2022-07-10T13:08:14;6.28;;;3.28;;
50531;SDS011;36483;37.396;-122.212;2022-07-10T13:10:53;8.73;;;3.53;;
50531;SDS011;36483;37.396;-122.212;2022-07-10T13:13:21;8.93;;;3.92;;
50531;SDS011;36483;37.396;-122.212;2022-07-10T13:15:48;5.97;;;3.38;;
50531;SDS011;36483;37.396;-122.212;2022-07-10T13:18:27;9.35;;;3.83;;
50531;SDS011;36483;37.396;-122.212;2022-07-10T13:20:56;7.80;;;3.65;;
50531;SDS011;36483;37.396;-122.212;2022-07-10T13:23:23;8.88;;;3.80;;
50531;SDS011;36483;37.396;-122.212;2022-07-10T13:25:51;8.95;;;4.32;;
50531;SDS011;36483;37.396;-122.212;2022-07-10T13:28:18;8.57;;;4.03;;
50531;SDS011;36483;37.396;-122.212;2022-07-10T13:30:44;7.97;;;3.78;;
50531;SDS011;36483;37.396;-122.212;2022-07-10T13:33:11;8.10;;;4.20;;
50531;SDS011;36483;37.396;-122.212;2022-07-10T13:35:37;8.23;;;3.90;;
50531;SDS011;36483;37.396;-122.212;2022-07-10T13:38:04;8.35;;;3.60;;
50531;SDS011;36483;37.396;-122.212;2022-07-10T13:40:31;9.95;;;4.07;;
50531;SDS011;36483;37.396;-122.212;2022-07-10T13:42:58;9.85;;;4.13;;
50531;SDS011;36483;37.396;-122.212;2022-07-10T13:45:25;9.25;;;4.55;;
50531;SDS011;36483;37.396;-122.212;2022-07-10T13:47:55;12.15;;;5.38;;
50531;SDS011;36483;37.396;-122.212;2022-07-10T13:50:22;11.77;;;4.72;;
50531;SDS011;36483;37.396;-122.212;2022-07-10T13:52:49;11.57;;;4.25;;
50531;SDS011;36483;37.396;-122.212;2022-07-10T13:55:15;11.63;;;4.40;;
50531;SDS011;36483;37.396;-122.212;2022-07-10T13:57:41;14.60;;;4.90;;
50531;SDS011;36483;37.396;-122.212;2022-07-10T14:00:07;9.02;;;4.22;;
50531;SDS011;36483;37.396;-122.212;2022-07-10T14:02:34;10.73;;;4.43;;
50531;SDS011;36483;37.396;-122.212;2022-07-10T14:05:00;15.10;;;5.18;;
50531;SDS011;36483;37.396;-122.212;2022-07-10T14:07:26;12.05;;;4.85;;
50531;SDS011;36483;37.396;-122.212;2022-07-10T14:09:53;8.95;;;4.45;;
50531;SDS011;36483;37.396;-122.212;2022-07-10T14:12:20;12.20;;;4.95;;
50531;SDS011;36483;37.396;-122.212;2022-07-10T14:14:46;10.43;;;4.55;;
50531;SDS011;36483;37.396;-122.212;2022-07-10T14:17:13;14.30;;;5.00;;
50531;SDS011;36483;37.396;-122.212;2022-07-10T14:19:39;11.88;;;5.22;;
50531;SDS011;36483;37.396;-122.212;2022-07-10T14:22:06;11.13;;;4.75;;
50531;SDS011;36483;37.396;-122.212;2022-07-10T14:24:33;10.50;;;5.38;;
50531;SDS011;36483;37.396;-122.212;2022-07-10T14:26:59;10.10;;;5.07;;
50531;SDS011;36483;37.396;-122.212;2022-07-10T14:29:25;10.90;;;5.30;;
50531;SDS011;36483;37.396;-122.212;2022-07-10T14:31:51;12.73;;;5.40;;
50531;SDS011;36483;37.396;-122.212;2022-07-10T14:34:18;9.90;;;4.70;;
50531;SDS011;36483;37.396;-122.212;2022-07-10T14:36:44;11.15;;;5.22;;
50531;SDS011;36483;37.396;-122.212;2022-07-10T14:39:10;10.82;;;5.13;;
50531;SDS011;36483;37.396;-122.212;2022-07-10T14:41:39;11.65;;;5.05;;
50531;SDS011;36483;37.396;-122.212;2022-07-10T14:44:05;10.68;;;4.80;;
50531;SDS011;36483;37.396;-122.212;2022-07-10T14:46:32;11.85;;;5.35;;
50531;SDS011;36483;37.396;-122.212;2022-07-10T14:48:59;11.32;;;4.90;;
50531;SDS011;36483;37.396;-122.212;2022-07-10T14:51:25;10.45;;;4.57;;
50531;SDS011;36483;37.396;-122.212;2022-07-10T14:53:52;12.30;;;4.95;;
50531;SDS011;36483;37.396;-122.212;2022-07-10T14:56:19;16.35;;;5.32;;
50531;SDS011;36483;37.396;-122.212;2022-07-10T14:58:45;13.70;;;5.22;;
50531;SDS011;36483;37.396;-122.212;2022-07-10T15:01:12;12.65;;;4.50;;